Airfield :
LOGIN :

Register | Disclaimer

   EN    FR    IT 

 










Legend :    VFR   Marginal VFR   IFR   Intensive IFR   Very Intensive IFR
Visi :
Ceiling :
>= 8 km
>= 3000ft
5 to 8 km
1000 to 3000 ft
1500m to 5 km
500 to 1000 ft
800 to 1500m
200 to 500 ft
< 800m
< 200 ft
Symbols :   Thunderstorms  Fog  Heavy snow  Heavy precipitations  Wind > 20 kt
SIGMETs :     Misc.  Thunderstorms  Icing  Turbulence  Mountain Waves  Volcanic Ashes







- Airport Elevation : 408 ft
- IATA code : FKB


EDSB - Karlsruhe Baden Baden

CURRENT METAR :
  • 160820Z 00000KT 9000 FEW019 BKN028 OVC036 03/03 Q1009

EXPIRED METARs :
  • 160750Z VRB01KT 9000 BKN010 OVC015 03/03 Q1008
  • 160720Z 35002KT 8000 FEW006 OVC013 03/03 Q1008
  • 160650Z VRB02KT 9999 FEW006 BKN011 OVC031 03/03 Q1007
  • 160620Z VRB02KT 9999 FEW005 SCT007 OVC011 03/03 Q1006 RERA
  • 160550Z 31003KT 250V350 9000 RA FEW005 BKN007 OVC014 03/03 Q1006

TAF TAF EDSB
Valid from the 16 at 06:00 until the 17 at 06:00 UTC


160500Z 1606/1706 22005KT 9999 BKN020
TEMPO 1606/1609 4000 SHRA BKN008 BKN015CB
TEMPO 1609/1621 3000 SHRASN BKN010 BKN015CB
BECMG 1618/1620 22010KT
PROB30
TEMPO 1621/1706 3000 SHSNRA BKN010 BKN015CB
No reported NOTAMs for that airfield.



MET'MAP, your aeronautical weather chart ! - Copyright ORBIFLY December 2007 - Disclaimer

ORBIFLY MET'MAP TEAM :

Programming & Development : Alexandra Zaïnal
Concept & Development : Baudouin d'Aumeries
Co-Development & Prog : Marc-Olivier Méhu
Technical & hardware support : Manuel Goepfert

Contact : metmap@orbifly.com




SOURCES & CREDITS :

   NOAA